Somerset, New Jersey
Current Conditions -  °F | °C
As of 5:53 PM on Tuesday 27 Jan 2015 (Local Time) from KSMQ Reporting Station
Clear Clear  
Wind Chill: -8°   Ceiling: Unl
Heat Index: -3°   Visibility: 10mi
Dew Point: -11°   Wind: 9mph
Humidity: 53%   Direction: 330°NNW
Pressure: 29.72"   Gusts: 21mph
Location:  40.5°N, 74.52°W
Report Text: KSMQ 272253Z AUTO 33008G18KT 10SM CLR M03/M11 A2972 RMK AO2 SLP066 T10281111 TSNO
Loading
Personal Weather Stations






























Interactive Weather Map New forecast layout! Learn more

10-Day Weather Forecast

Advertisements
Track Severe Weather on mobile